Back to Top

Language: 

My Weather Underground Personal Weather Station Historical Data with Graphs...

Delerius Weather Station Historical Data
Daily Summary for March 9, 2017 Units:  Both    English   Metric
« Previous Day
Next Day »
Daily Weekly Monthly Yearly Custom
  High: Low: Average:
Temperature: 56.3 °F /  13.5 °C 40.2 °F /  4.6 °C 48.7 °F /  9.3 °C
Dew Point: 44.9 °F /  7.2 °C 36.9 °F /  2.7 °C 40.5 °F /  4.7 °C
Humidity: 90 % 51 % 75 %
Wind Speed: 24.0 mph /  38.6 km/h - 9.3 mph /  15 km/h
Wind Gust: 32.0 mph /  51.5 km/h - -
Wind:- - West
Pressure: 30.30 in /  1026 hPa 29.86 in /  1011.1 hPa -
Precipitation: 0.00 in /  0 mm    
Historical Graphs
 
 
Tabular Data for March 9, 2017
Time Temperature Dew Point Pressure Wind Wind Speed Wind Gust Humidity Rainfall Rate (Hourly) solar Conditions
00:05 47.1 °F /  8.4 °C 41.2 °F /  5.1 °C 29.92 in /  1013.1 hPa WSW 9.0 mph /  14.5 km/h 22.0 mph /  35.4 km/h 80 % 0.00 in /  0 mm 0 W/m2
00:15 47.0 °F /  8.3 °C 41.1 °F /  5.1 °C 29.92 in /  1013.1 hPa WSW 9.0 mph /  14.5 km/h 10.0 mph /  16.1 km/h 80 % 0.00 in /  0 mm 0 W/m2
00:20 46.9 °F /  8.3 °C 41.1 °F /  5.1 °C 29.92 in /  1013.1 hPa WSW 8.0 mph /  12.9 km/h 9.0 mph /  14.5 km/h 80 % 0.00 in /  0 mm 0 W/m2
00:25 46.8 °F /  8.2 °C 41.3 °F /  5.2 °C 29.92 in /  1013.1 hPa WSW 8.0 mph /  12.9 km/h 9.0 mph /  14.5 km/h 81 % 0.00 in /  0 mm 0 W/m2
00:30 46.8 °F /  8.2 °C 41.3 °F /  5.2 °C 29.92 in /  1013.1 hPa WSW 8.0 mph /  12.9 km/h 8.0 mph /  12.9 km/h 81 % 0.00 in /  0 mm 0 W/m2
00:40 46.7 °F /  8.2 °C 41.2 °F /  5.1 °C 29.91 in /  1012.8 hPa WSW 6.0 mph /  9.7 km/h 6.0 mph /  9.7 km/h 81 % 0.00 in /  0 mm 0 W/m2
00:45 46.6 °F /  8.1 °C 41.4 °F /  5.2 °C 29.91 in /  1012.8 hPa SW 6.0 mph /  9.7 km/h 6.0 mph /  9.7 km/h 82 % 0.00 in /  0 mm 0 W/m2
00:50 46.5 °F /  8.1 °C 41.3 °F /  5.2 °C 29.91 in /  1012.8 hPa WSW 5.0 mph /  8 km/h 5.0 mph /  8 km/h 82 % 0.00 in /  0 mm 0 W/m2
00:55 46.4 °F /  8 °C 41.2 °F /  5.1 °C 29.91 in /  1012.8 hPa SW 6.0 mph /  9.7 km/h 6.0 mph /  9.7 km/h 82 % 0.00 in /  0 mm 0 W/m2
01:00 46.2 °F /  7.9 °C 41.3 °F /  5.2 °C 29.91 in /  1012.8 hPa SW 6.0 mph /  9.7 km/h 8.0 mph /  12.9 km/h 83 % 0.00 in /  0 mm 0 W/m2
01:10 46.2 °F /  7.9 °C 41.3 °F /  5.2 °C 29.91 in /  1012.8 hPa SW 6.0 mph /  9.7 km/h 16.0 mph /  25.7 km/h 83 % 0.00 in /  0 mm 0 W/m2
01:15 46.1 °F /  7.8 °C 41.2 °F /  5.1 °C 29.90 in /  1012.4 hPa SW 6.0 mph /  9.7 km/h 16.0 mph /  25.7 km/h 83 % 0.00 in /  0 mm 0 W/m2
01:20 45.9 °F /  7.7 °C 41.0 °F /  5 °C 29.90 in /  1012.4 hPa SW 6.0 mph /  9.7 km/h 6.0 mph /  9.7 km/h 83 % 0.00 in /  0 mm 0 W/m2
01:25 45.8 °F /  7.7 °C 41.2 °F /  5.1 °C 29.90 in /  1012.4 hPa SW 6.0 mph /  9.7 km/h 16.0 mph /  25.7 km/h 84 % 0.00 in /  0 mm 0 W/m2
01:30 45.8 °F /  7.7 °C 41.5 °F /  5.3 °C 29.90 in /  1012.4 hPa SSW 6.0 mph /  9.7 km/h 6.0 mph /  9.7 km/h 85 % 0.00 in /  0 mm 0 W/m2
01:35 45.8 °F /  7.7 °C 41.5 °F /  5.3 °C 29.89 in /  1012.1 hPa SSW 5.0 mph /  8 km/h 16.0 mph /  25.7 km/h 85 % 0.00 in /  0 mm 0 W/m2
01:45 45.8 °F /  7.7 °C 41.5 °F /  5.3 °C 29.90 in /  1012.4 hPa SSW 2.0 mph /  3.2 km/h 16.0 mph /  25.7 km/h 85 % 0.00 in /  0 mm 0 W/m2
01:55 45.5 °F /  7.5 °C 41.3 °F /  5.2 °C 29.89 in /  1012.1 hPa Calm   16.0 mph /  25.7 km/h 85 % 0.00 in /  0 mm 0 W/m2
02:00 45.5 °F /  7.5 °C 41.6 °F /  5.3 °C 29.89 in /  1012.1 hPa Calm   16.0 mph /  25.7 km/h 86 % 0.00 in /  0 mm 0 W/m2
02:05 45.4 °F /  7.4 °C 41.5 °F /  5.3 °C 29.88 in /  1011.7 hPa SSE 1.0 mph /  1.6 km/h 16.0 mph /  25.7 km/h 86 % 0.00 in /  0 mm 0 W/m2
02:10 45.1 °F /  7.3 °C 41.2 °F /  5.1 °C 29.89 in /  1012.1 hPa SSE 1.0 mph /  1.6 km/h 16.0 mph /  25.7 km/h 86 % 0.00 in /  0 mm 0 W/m2
02:20 44.8 °F /  7.1 °C 41.2 °F /  5.1 °C 29.88 in /  1011.7 hPa ESE 3.0 mph /  4.8 km/h 16.0 mph /  25.7 km/h 87 % 0.00 in /  0 mm 0 W/m2
02:25 44.6 °F /  7 °C 41.0 °F /  5 °C 29.88 in /  1011.7 hPa East 3.0 mph /  4.8 km/h 16.0 mph /  25.7 km/h 87 % 0.00 in /  0 mm 0 W/m2
02:30 44.4 °F /  6.9 °C 40.8 °F /  4.9 °C 29.88 in /  1011.7 hPa East 2.0 mph /  3.2 km/h 16.0 mph /  25.7 km/h 87 % 0.00 in /  0 mm 0 W/m2
02:35 44.1 °F /  6.7 °C 40.5 °F /  4.7 °C 29.88 in /  1011.7 hPa ESE 1.0 mph /  1.6 km/h 16.0 mph /  25.7 km/h 87 % 0.00 in /  0 mm 0 W/m2
02:40 43.9 °F /  6.6 °C 40.6 °F /  4.8 °C 29.88 in /  1011.7 hPa Calm   16.0 mph /  25.7 km/h 88 % 0.00 in /  0 mm 0 W/m2
02:50 43.5 °F /  6.4 °C 40.2 °F /  4.6 °C 29.88 in /  1011.7 hPa WSW 1.0 mph /  1.6 km/h 16.0 mph /  25.7 km/h 88 % 0.00 in /  0 mm 0 W/m2
02:55 43.7 °F /  6.5 °C 40.7 °F /  4.8 °C 29.88 in /  1011.7 hPa WSW 3.0 mph /  4.8 km/h 16.0 mph /  25.7 km/h 89 % 0.00 in /  0 mm 0 W/m2
03:00 44.3 °F /  6.8 °C 41.6 °F /  5.3 °C 29.88 in /  1011.7 hPa West 6.0 mph /  9.7 km/h 16.0 mph /  25.7 km/h 90 % 0.00 in /  0 mm 0 W/m2
03:05 45.1 °F /  7.3 °C 42.1 °F /  5.6 °C 29.88 in /  1011.7 hPa West 7.0 mph /  11.3 km/h 16.0 mph /  25.7 km/h 89 % 0.00 in /  0 mm 0 W/m2
03:15 45.9 °F /  7.7 °C 42.5 °F /  5.8 °C 29.88 in /  1011.7 hPa WSW 6.0 mph /  9.7 km/h 16.0 mph /  25.7 km/h 88 % 0.00 in /  0 mm 0 W/m2
03:20 46.1 °F /  7.8 °C 42.1 °F /  5.6 °C 29.87 in /  1011.4 hPa WSW 5.0 mph /  8 km/h 5.0 mph /  8 km/h 86 % 0.00 in /  0 mm 0 W/m2
03:30 46.1 °F /  7.8 °C 42.1 °F /  5.6 °C 29.87 in /  1011.4 hPa West 6.0 mph /  9.7 km/h 16.0 mph /  25.7 km/h 86 % 0.00 in /  0 mm 0 W/m2
03:35 46.0 °F /  7.8 °C 42.0 °F /  5.6 °C 29.87 in /  1011.4 hPa West 5.0 mph /  8 km/h 16.0 mph /  25.7 km/h 86 % 0.00 in /  0 mm 0 W/m2
03:40 45.9 °F /  7.7 °C 41.9 °F /  5.5 °C 29.87 in /  1011.4 hPa NNW 3.0 mph /  4.8 km/h 16.0 mph /  25.7 km/h 86 % 0.00 in /  0 mm 0 W/m2
03:45 45.7 °F /  7.6 °C 42.1 °F /  5.6 °C 29.87 in /  1011.4 hPa West 3.0 mph /  4.8 km/h 16.0 mph /  25.7 km/h 87 % 0.00 in /  0 mm 0 W/m2
03:50 45.5 °F /  7.5 °C 41.9 °F /  5.5 °C 29.87 in /  1011.4 hPa West 3.0 mph /  4.8 km/h 3.0 mph /  4.8 km/h 87 % 0.00 in /  0 mm 0 W/m2
04:00 45.1 °F /  7.3 °C 41.8 °F /  5.4 °C 29.87 in /  1011.4 hPa West 2.0 mph /  3.2 km/h 16.0 mph /  25.7 km/h 88 % 0.00 in /  0 mm 0 W/m2
04:05 45.4 °F /  7.4 °C 42.3 °F /  5.7 °C 29.87 in /  1011.4 hPa West 5.0 mph /  8 km/h 16.0 mph /  25.7 km/h 89 % 0.00 in /  0 mm 0 W/m2
04:10 45.7 °F /  7.6 °C 42.9 °F /  6.1 °C 29.87 in /  1011.4 hPa West 6.0 mph /  9.7 km/h 6.0 mph /  9.7 km/h 90 % 0.00 in /  0 mm 0 W/m2
04:15 45.9 °F /  7.7 °C 42.8 °F /  6 °C 29.87 in /  1011.4 hPa WSW 5.0 mph /  8 km/h 16.0 mph /  25.7 km/h 89 % 0.00 in /  0 mm 0 W/m2
04:20 46.2 °F /  7.9 °C 43.1 °F /  6.2 °C 29.87 in /  1011.4 hPa WNW 6.0 mph /  9.7 km/h 16.0 mph /  25.7 km/h 89 % 0.00 in /  0 mm 0 W/m2
04:30 46.7 °F /  8.2 °C 43.6 °F /  6.4 °C 29.87 in /  1011.4 hPa West 8.0 mph /  12.9 km/h 8.0 mph /  12.9 km/h 89 % 0.00 in /  0 mm 0 W/m2
04:35 46.8 °F /  8.2 °C 43.7 °F /  6.5 °C 29.86 in /  1011.1 hPa West 9.0 mph /  14.5 km/h 20.0 mph /  32.2 km/h 89 % 0.00 in /  0 mm 0 W/m2
04:40 47.0 °F /  8.3 °C 43.9 °F /  6.6 °C 29.86 in /  1011.1 hPa West 11.0 mph /  17.7 km/h 16.0 mph /  25.7 km/h 89 % 0.00 in /  0 mm 0 W/m2
04:50 47.3 °F /  8.5 °C 44.2 °F /  6.8 °C 29.86 in /  1011.1 hPa West 13.0 mph /  20.9 km/h 23.0 mph /  37 km/h 89 % 0.00 in /  0 mm 0 W/m2
04:55 47.3 °F /  8.5 °C 44.2 °F /  6.8 °C 29.86 in /  1011.1 hPa WNW 14.0 mph /  22.5 km/h 23.0 mph /  37 km/h 89 % 0.00 in /  0 mm 0 W/m2
05:05 47.5 °F /  8.6 °C 44.4 °F /  6.9 °C 29.87 in /  1011.4 hPa WNW 15.0 mph /  24.1 km/h 25.0 mph /  40.2 km/h 89 % 0.00 in /  0 mm 0 W/m2
05:10 47.6 °F /  8.7 °C 44.5 °F /  6.9 °C 29.87 in /  1011.4 hPa West 17.0 mph /  27.4 km/h 17.0 mph /  27.4 km/h 89 % 0.00 in /  0 mm 0 W/m2
05:15 47.6 °F /  8.7 °C 44.5 °F /  6.9 °C 29.88 in /  1011.7 hPa WNW 17.0 mph /  27.4 km/h 17.0 mph /  27.4 km/h 89 % 0.00 in /  0 mm 0 W/m2
05:20 47.6 °F /  8.7 °C 44.5 °F /  6.9 °C 29.88 in /  1011.7 hPa West 16.0 mph /  25.7 km/h 19.0 mph /  30.6 km/h 89 % 0.00 in /  0 mm 0 W/m2
05:25 47.6 °F /  8.7 °C 44.8 °F /  7.1 °C 29.89 in /  1012.1 hPa West 15.0 mph /  24.1 km/h 25.0 mph /  40.2 km/h 90 % 0.00 in /  0 mm 0 W/m2
05:30 47.6 °F /  8.7 °C 44.8 °F /  7.1 °C 29.89 in /  1012.1 hPa WNW 16.0 mph /  25.7 km/h 18.0 mph /  29 km/h 90 % 0.00 in /  0 mm 0 W/m2
05:40 47.6 °F /  8.7 °C 44.5 °F /  6.9 °C 29.89 in /  1012.1 hPa West 15.0 mph /  24.1 km/h 25.0 mph /  40.2 km/h 89 % 0.00 in /  0 mm 0 W/m2
05:45 47.6 °F /  8.7 °C 44.5 °F /  6.9 °C 29.89 in /  1012.1 hPa West 15.0 mph /  24.1 km/h 25.0 mph /  40.2 km/h 89 % 0.00 in /  0 mm 0 W/m2
05:50 47.5 °F /  8.6 °C 44.4 °F /  6.9 °C 29.90 in /  1012.4 hPa WNW 14.0 mph /  22.5 km/h 16.0 mph /  25.7 km/h 89 % 0.00 in /  0 mm 0 W/m2
05:55 47.5 °F /  8.6 °C 44.7 °F /  7.1 °C 29.90 in /  1012.4 hPa WNW 14.0 mph /  22.5 km/h 16.0 mph /  25.7 km/h 90 % 0.00 in /  0 mm 0 W/m2
06:00 47.4 °F /  8.6 °C 44.3 °F /  6.8 °C 29.90 in /  1012.4 hPa West 13.0 mph /  20.9 km/h 18.0 mph /  29 km/h 89 % 0.00 in /  0 mm 0 W/m2
06:10 47.6 °F /  8.7 °C 44.5 °F /  6.9 °C 29.91 in /  1012.8 hPa West 14.0 mph /  22.5 km/h 18.0 mph /  29 km/h 89 % 0.00 in /  0 mm 0 W/m2
06:15 47.7 °F /  8.7 °C 44.6 °F /  7 °C 29.91 in /  1012.8 hPa WNW 14.0 mph /  22.5 km/h 18.0 mph /  29 km/h 89 % 0.00 in /  0 mm 0 W/m2
06:25 47.7 °F /  8.7 °C 44.6 °F /  7 °C 29.92 in /  1013.1 hPa West 13.0 mph /  20.9 km/h 16.0 mph /  25.7 km/h 89 % 0.00 in /  0 mm 0 W/m2
06:30 47.7 °F /  8.7 °C 44.6 °F /  7 °C 29.92 in /  1013.1 hPa WNW 12.0 mph /  19.3 km/h 18.0 mph /  29 km/h 89 % 0.00 in /  0 mm 0 W/m2
06:35 47.8 °F /  8.8 °C 44.7 °F /  7.1 °C 29.93 in /  1013.4 hPa West 13.0 mph /  20.9 km/h 18.0 mph /  29 km/h 89 % 0.00 in /  0 mm 5 W/m2
06:40 47.9 °F /  8.8 °C 44.8 °F /  7.1 °C 29.93 in /  1013.4 hPa West 16.0 mph /  25.7 km/h 21.0 mph /  33.8 km/h 89 % 0.00 in /  0 mm 12 W/m2
06:45 48.0 °F /  8.9 °C 44.9 °F /  7.2 °C 29.93 in /  1013.4 hPa West 16.0 mph /  25.7 km/h 21.0 mph /  33.8 km/h 89 % 0.00 in /  0 mm 23 W/m2
06:50 48.1 °F /  8.9 °C 44.7 °F /  7.1 °C 29.93 in /  1013.4 hPa West 15.0 mph /  24.1 km/h 15.0 mph /  24.1 km/h 88 % 0.00 in /  0 mm 9 W/m2
06:55 48.2 °F /  9 °C 44.8 °F /  7.1 °C 29.93 in /  1013.4 hPa WNW 14.0 mph /  22.5 km/h 19.0 mph /  30.6 km/h 88 % 0.00 in /  0 mm 16 W/m2
07:00 48.2 °F /  9 °C 44.2 °F /  6.8 °C 29.93 in /  1013.4 hPa WNW 17.0 mph /  27.4 km/h 18.0 mph /  29 km/h 86 % 0.00 in /  0 mm 18 W/m2
07:05 48.2 °F /  9 °C 44.2 °F /  6.8 °C 29.94 in /  1013.8 hPa WNW 18.0 mph /  29 km/h 18.0 mph /  29 km/h 86 % 0.00 in /  0 mm 26 W/m2
07:10 48.2 °F /  9 °C 43.9 °F /  6.6 °C 29.94 in /  1013.8 hPa WNW 18.0 mph /  29 km/h 21.0 mph /  33.8 km/h 85 % 0.00 in /  0 mm 56 W/m2
07:20 48.4 °F /  9.1 °C 44.1 °F /  6.7 °C 29.95 in /  1014.1 hPa West 16.0 mph /  25.7 km/h 19.0 mph /  30.6 km/h 85 % 0.00 in /  0 mm 88 W/m2
07:25 48.5 °F /  9.2 °C 43.9 °F /  6.6 °C 29.95 in /  1014.1 hPa WNW 16.0 mph /  25.7 km/h 25.0 mph /  40.2 km/h 84 % 0.00 in /  0 mm 102 W/m2
07:30 48.6 °F /  9.2 °C 44.0 °F /  6.7 °C 29.95 in /  1014.1 hPa NW 15.0 mph /  24.1 km/h 16.0 mph /  25.7 km/h 84 % 0.00 in /  0 mm 113 W/m2
07:35 48.6 °F /  9.2 °C 44.0 °F /  6.7 °C 29.95 in /  1014.1 hPa WSW 16.0 mph /  25.7 km/h 16.0 mph /  25.7 km/h 84 % 0.00 in /  0 mm 121 W/m2
07:40 48.8 °F /  9.3 °C 43.9 °F /  6.6 °C 29.96 in /  1014.4 hPa WNW 16.0 mph /  25.7 km/h 16.0 mph /  25.7 km/h 83 % 0.00 in /  0 mm 137 W/m2
07:50 49.1 °F /  9.5 °C 44.2 °F /  6.8 °C 29.97 in /  1014.8 hPa WNW 17.0 mph /  27.4 km/h 17.0 mph /  27.4 km/h 83 % 0.00 in /  0 mm 214 W/m2
08:00 48.9 °F /  9.4 °C 42.7 °F /  5.9 °C 29.97 in /  1014.8 hPa West 18.0 mph /  29 km/h 25.0 mph /  40.2 km/h 79 % 0.00 in /  0 mm 141 W/m2
08:05 48.8 °F /  9.3 °C 42.2 °F /  5.7 °C 29.97 in /  1014.8 hPa NNW 19.0 mph /  30.6 km/h 25.0 mph /  40.2 km/h 78 % 0.00 in /  0 mm 206 W/m2
08:10 48.9 °F /  9.4 °C 42.3 °F /  5.7 °C 29.97 in /  1014.8 hPa West 18.0 mph /  29 km/h 18.0 mph /  29 km/h 78 % 0.00 in /  0 mm 216 W/m2
08:15 49.0 °F /  9.4 °C 42.4 °F /  5.8 °C 29.97 in /  1014.8 hPa West 17.0 mph /  27.4 km/h 18.0 mph /  29 km/h 78 % 0.00 in /  0 mm 230 W/m2
08:25 49.3 °F /  9.6 °C 42.4 °F /  5.8 °C 29.98 in /  1015.1 hPa WNW 17.0 mph /  27.4 km/h 18.0 mph /  29 km/h 77 % 0.00 in /  0 mm 257 W/m2
08:30 49.3 °F /  9.6 °C 42.1 °F /  5.6 °C 29.98 in /  1015.1 hPa WNW 16.0 mph /  25.7 km/h 16.0 mph /  25.7 km/h 76 % 0.00 in /  0 mm 267 W/m2
08:35 49.5 °F /  9.7 °C 41.9 °F /  5.5 °C 29.98 in /  1015.1 hPa WNW 18.0 mph /  29 km/h 24.0 mph /  38.6 km/h 75 % 0.00 in /  0 mm 281 W/m2
08:40 49.5 °F /  9.7 °C 41.2 °F /  5.1 °C 29.98 in /  1015.1 hPa West 19.0 mph /  30.6 km/h 20.0 mph /  32.2 km/h 73 % 0.00 in /  0 mm 297 W/m2
08:45 49.6 °F /  9.8 °C 41.3 °F /  5.2 °C 29.98 in /  1015.1 hPa West 20.0 mph /  32.2 km/h 20.0 mph /  32.2 km/h 73 % 0.00 in /  0 mm 309 W/m2
08:50 49.7 °F /  9.8 °C 41.0 °F /  5 °C 29.98 in /  1015.1 hPa West 21.0 mph /  33.8 km/h 21.0 mph /  33.8 km/h 72 % 0.00 in /  0 mm 325 W/m2
09:00 50.0 °F /  10 °C 41.7 °F /  5.4 °C 29.98 in /  1015.1 hPa West 21.0 mph /  33.8 km/h 21.0 mph /  33.8 km/h 73 % 0.00 in /  0 mm 348 W/m2
09:05 50.1 °F /  10.1 °C 41.8 °F /  5.4 °C 29.98 in /  1015.1 hPa West 21.0 mph /  33.8 km/h 21.0 mph /  33.8 km/h 73 % 0.00 in /  0 mm 355 W/m2
09:10 50.2 °F /  10.1 °C 41.9 °F /  5.5 °C 29.98 in /  1015.1 hPa West 21.0 mph /  33.8 km/h 21.0 mph /  33.8 km/h 73 % 0.00 in /  0 mm 369 W/m2
09:20 50.4 °F /  10.2 °C 41.7 °F /  5.4 °C 29.99 in /  1015.5 hPa WSW 23.0 mph /  37 km/h 32.0 mph /  51.5 km/h 72 % 0.00 in /  0 mm 406 W/m2
09:25 50.4 °F /  10.2 °C 41.7 °F /  5.4 °C 29.99 in /  1015.5 hPa WNW 23.0 mph /  37 km/h 32.0 mph /  51.5 km/h 72 % 0.00 in /  0 mm 415 W/m2
09:35 50.6 °F /  10.3 °C 41.2 °F /  5.1 °C 29.99 in /  1015.5 hPa West 22.0 mph /  35.4 km/h 22.0 mph /  35.4 km/h 70 % 0.00 in /  0 mm 427 W/m2
09:40 50.6 °F /  10.3 °C 41.2 °F /  5.1 °C 30.00 in /  1015.8 hPa NW 23.0 mph /  37 km/h 28.0 mph /  45.1 km/h 70 % 0.00 in /  0 mm 438 W/m2
09:45 50.7 °F /  10.4 °C 40.9 °F /  4.9 °C 30.00 in /  1015.8 hPa WNW 23.0 mph /  37 km/h 28.0 mph /  45.1 km/h 69 % 0.00 in /  0 mm 441 W/m2
09:50 50.9 °F /  10.5 °C 41.1 °F /  5.1 °C 30.00 in /  1015.8 hPa West 22.0 mph /  35.4 km/h 23.0 mph /  37 km/h 69 % 0.00 in /  0 mm 459 W/m2
09:55 51.0 °F /  10.6 °C 41.2 °F /  5.1 °C 30.00 in /  1015.8 hPa West 22.0 mph /  35.4 km/h 29.0 mph /  46.7 km/h 69 % 0.00 in /  0 mm 466 W/m2
10:05 51.0 °F /  10.6 °C 41.2 °F /  5.1 °C 30.00 in /  1015.8 hPa West 24.0 mph /  38.6 km/h 27.0 mph /  43.5 km/h 69 % 0.00 in /  0 mm 489 W/m2
10:10 51.0 °F /  10.6 °C 41.2 °F /  5.1 °C 30.01 in /  1016.1 hPa WSW 24.0 mph /  38.6 km/h 29.0 mph /  46.7 km/h 69 % 0.00 in /  0 mm 494 W/m2
10:15 51.1 °F /  10.6 °C 41.3 °F /  5.2 °C 30.01 in /  1016.1 hPa WNW 23.0 mph /  37 km/h 29.0 mph /  46.7 km/h 69 % 0.00 in /  0 mm 494 W/m2
10:20 51.2 °F /  10.7 °C 41.4 °F /  5.2 °C 30.01 in /  1016.1 hPa WNW 23.0 mph /  37 km/h 23.0 mph /  37 km/h 69 % 0.00 in /  0 mm 512 W/m2
10:25 51.4 °F /  10.8 °C 41.6 °F /  5.3 °C 30.01 in /  1016.1 hPa NW 23.0 mph /  37 km/h 23.0 mph /  37 km/h 69 % 0.00 in /  0 mm 513 W/m2
10:35 51.7 °F /  10.9 °C 41.5 °F /  5.3 °C 30.02 in /  1016.5 hPa WNW 21.0 mph /  33.8 km/h 22.0 mph /  35.4 km/h 68 % 0.00 in /  0 mm 494 W/m2
10:40 51.6 °F /  10.9 °C 41.4 °F /  5.2 °C 30.02 in /  1016.5 hPa WNW 22.0 mph /  35.4 km/h 22.0 mph /  35.4 km/h 68 % 0.00 in /  0 mm 513 W/m2
10:50 51.5 °F /  10.8 °C 41.3 °F /  5.2 °C 30.03 in /  1016.8 hPa NW 19.0 mph /  30.6 km/h 19.0 mph /  30.6 km/h 68 % 0.00 in /  0 mm 512 W/m2
10:55 51.7 °F /  10.9 °C 41.1 °F /  5.1 °C 30.04 in /  1017.2 hPa West 18.0 mph /  29 km/h 19.0 mph /  30.6 km/h 67 % 0.00 in /  0 mm 555 W/m2
11:00 52.1 °F /  11.2 °C 41.5 °F /  5.3 °C 30.05 in /  1017.5 hPa WNW 18.0 mph /  29 km/h 18.0 mph /  29 km/h 67 % 0.00 in /  0 mm 564 W/m2
11:05 52.1 °F /  11.2 °C 41.1 °F /  5.1 °C 30.05 in /  1017.5 hPa WNW 19.0 mph /  30.6 km/h 20.0 mph /  32.2 km/h 66 % 0.00 in /  0 mm 566 W/m2
11:15 52.2 °F /  11.2 °C 40.8 °F /  4.9 °C 30.06 in /  1017.8 hPa WNW 21.0 mph /  33.8 km/h 25.0 mph /  40.2 km/h 65 % 0.00 in /  0 mm 573 W/m2
11:20 52.3 °F /  11.3 °C 41.3 °F /  5.2 °C 30.06 in /  1017.8 hPa WNW 21.0 mph /  33.8 km/h 21.0 mph /  33.8 km/h 66 % 0.00 in /  0 mm 570 W/m2
11:25 52.4 °F /  11.3 °C 41.0 °F /  5 °C 30.06 in /  1017.8 hPa WNW 21.0 mph /  33.8 km/h 21.0 mph /  33.8 km/h 65 % 0.00 in /  0 mm 596 W/m2
11:30 52.6 °F /  11.4 °C 41.6 °F /  5.3 °C 30.07 in /  1018.2 hPa NW 22.0 mph /  35.4 km/h 22.0 mph /  35.4 km/h 66 % 0.00 in /  0 mm 582 W/m2
11:35 53.0 °F /  11.7 °C 41.9 °F /  5.5 °C 30.08 in /  1018.5 hPa West 19.0 mph /  30.6 km/h 22.0 mph /  35.4 km/h 66 % 0.00 in /  0 mm 613 W/m2
11:45 53.2 °F /  11.8 °C 41.7 °F /  5.4 °C 30.08 in /  1018.5 hPa WSW 20.0 mph /  32.2 km/h 20.0 mph /  32.2 km/h 65 % 0.00 in /  0 mm 594 W/m2
11:50 53.3 °F /  11.8 °C 41.4 °F /  5.2 °C 30.09 in /  1018.8 hPa WNW 18.0 mph /  29 km/h 20.0 mph /  32.2 km/h 64 % 0.00 in /  0 mm 613 W/m2
11:55 53.6 °F /  12 °C 42.1 °F /  5.6 °C 30.09 in /  1018.8 hPa WSW 15.0 mph /  24.1 km/h 20.0 mph /  32.2 km/h 65 % 0.00 in /  0 mm 612 W/m2
12:00 53.8 °F /  12.1 °C 41.9 °F /  5.5 °C 30.09 in /  1018.8 hPa WNW 15.0 mph /  24.1 km/h 15.0 mph /  24.1 km/h 64 % 0.00 in /  0 mm 540 W/m2
12:10 53.9 °F /  12.2 °C 41.2 °F /  5.1 °C 30.09 in /  1018.8 hPa WNW 18.0 mph /  29 km/h 18.0 mph /  29 km/h 62 % 0.00 in /  0 mm 550 W/m2
12:15 54.1 °F /  12.3 °C 42.2 °F /  5.7 °C 30.10 in /  1019.2 hPa West 17.0 mph /  27.4 km/h 19.0 mph /  30.6 km/h 64 % 0.00 in /  0 mm 552 W/m2
12:25 54.1 °F /  12.3 °C 41.4 °F /  5.2 °C 30.10 in /  1019.2 hPa West 17.0 mph /  27.4 km/h 17.0 mph /  27.4 km/h 62 % 0.00 in /  0 mm 599 W/m2
12:30 54.3 °F /  12.4 °C 41.6 °F /  5.3 °C 30.10 in /  1019.2 hPa WNW 16.0 mph /  25.7 km/h 16.0 mph /  25.7 km/h 62 % 0.00 in /  0 mm 591 W/m2
12:35 54.4 °F /  12.4 °C 41.6 °F /  5.3 °C 30.10 in /  1019.2 hPa NW 15.0 mph /  24.1 km/h 16.0 mph /  25.7 km/h 62 % 0.00 in /  0 mm 596 W/m2
12:40 54.6 °F /  12.6 °C 41.8 °F /  5.4 °C 30.10 in /  1019.2 hPa WNW 15.0 mph /  24.1 km/h 21.0 mph /  33.8 km/h 62 % 0.00 in /  0 mm 594 W/m2
12:45 54.8 °F /  12.7 °C 41.6 °F /  5.3 °C 30.11 in /  1019.5 hPa WNW 14.0 mph /  22.5 km/h 21.0 mph /  33.8 km/h 61 % 0.00 in /  0 mm 591 W/m2
12:50 55.0 °F /  12.8 °C 41.4 °F /  5.2 °C 30.10 in /  1019.2 hPa West 13.0 mph /  20.9 km/h 16.0 mph /  25.7 km/h 60 % 0.00 in /  0 mm 587 W/m2
12:55 54.9 °F /  12.7 °C 39.9 °F /  4.4 °C 30.10 in /  1019.2 hPa NW 14.0 mph /  22.5 km/h 16.0 mph /  25.7 km/h 57 % 0.00 in /  0 mm 589 W/m2
13:00 54.9 °F /  12.7 °C 39.9 °F /  4.4 °C 30.10 in /  1019.2 hPa NW 15.0 mph /  24.1 km/h 15.0 mph /  24.1 km/h 57 % 0.00 in /  0 mm 585 W/m2
13:05 55.1 °F /  12.8 °C 39.7 °F /  4.3 °C 30.11 in /  1019.5 hPa WNW 14.0 mph /  22.5 km/h 16.0 mph /  25.7 km/h 56 % 0.00 in /  0 mm 582 W/m2
13:10 55.2 °F /  12.9 °C 39.8 °F /  4.3 °C 30.12 in /  1019.9 hPa NW 13.0 mph /  20.9 km/h 13.0 mph /  20.9 km/h 56 % 0.00 in /  0 mm 577 W/m2
13:15 55.4 °F /  13 °C 40.0 °F /  4.4 °C 30.12 in /  1019.9 hPa WNW 13.0 mph /  20.9 km/h 16.0 mph /  25.7 km/h 56 % 0.00 in /  0 mm 568 W/m2
13:25 55.9 °F /  13.3 °C 40.0 °F /  4.4 °C 30.12 in /  1019.9 hPa WNW 9.0 mph /  14.5 km/h 18.0 mph /  29 km/h 55 % 0.00 in /  0 mm 561 W/m2
13:35 56.1 °F /  13.4 °C 39.7 °F /  4.3 °C 30.12 in /  1019.9 hPa WNW 13.0 mph /  20.9 km/h 16.0 mph /  25.7 km/h 54 % 0.00 in /  0 mm 550 W/m2
13:40 55.7 °F /  13.2 °C 38.8 °F /  3.8 °C 30.12 in /  1019.9 hPa WNW 14.0 mph /  22.5 km/h 16.0 mph /  25.7 km/h 53 % 0.00 in /  0 mm 548 W/m2
13:45 55.8 °F /  13.2 °C 38.4 °F /  3.6 °C 30.12 in /  1019.9 hPa WNW 14.0 mph /  22.5 km/h 16.0 mph /  25.7 km/h 52 % 0.00 in /  0 mm 541 W/m2
13:50 55.7 °F /  13.2 °C 39.3 °F /  4.1 °C 30.13 in /  1020.2 hPa NNW 12.0 mph /  19.3 km/h 12.0 mph /  19.3 km/h 54 % 0.00 in /  0 mm 533 W/m2
14:00 55.9 °F /  13.3 °C 39.0 °F /  3.9 °C 30.14 in /  1020.5 hPa WNW 9.0 mph /  14.5 km/h 9.0 mph /  14.5 km/h 53 % 0.00 in /  0 mm 517 W/m2
14:05 56.1 °F /  13.4 °C 39.2 °F /  4 °C 30.14 in /  1020.5 hPa NW 9.0 mph /  14.5 km/h 16.0 mph /  25.7 km/h 53 % 0.00 in /  0 mm 506 W/m2
14:10 56.2 °F /  13.4 °C 38.8 °F /  3.8 °C 30.14 in /  1020.5 hPa WNW 10.0 mph /  16.1 km/h 10.0 mph /  16.1 km/h 52 % 0.00 in /  0 mm 499 W/m2
14:15 56.2 °F /  13.4 °C 38.8 °F /  3.8 °C 30.14 in /  1020.5 hPa WNW 10.0 mph /  16.1 km/h 16.0 mph /  25.7 km/h 52 % 0.00 in /  0 mm 490 W/m2
14:20 56.3 °F /  13.5 °C 38.4 °F /  3.6 °C 30.14 in /  1020.5 hPa WNW 10.0 mph /  16.1 km/h 16.0 mph /  25.7 km/h 51 % 0.00 in /  0 mm 482 W/m2
14:25 56.1 °F /  13.4 °C 38.2 °F /  3.4 °C 30.14 in /  1020.5 hPa WNW 11.0 mph /  17.7 km/h 16.0 mph /  25.7 km/h 51 % 0.00 in /  0 mm 473 W/m2
14:30 56.1 °F /  13.4 °C 38.7 °F /  3.7 °C 30.14 in /  1020.5 hPa WNW 11.0 mph /  17.7 km/h 11.0 mph /  17.7 km/h 52 % 0.00 in /  0 mm 466 W/m2
14:40 56.0 °F /  13.3 °C 38.1 °F /  3.4 °C 30.15 in /  1020.9 hPa NW 10.0 mph /  16.1 km/h 16.0 mph /  25.7 km/h 51 % 0.00 in /  0 mm 448 W/m2
14:45 56.1 °F /  13.4 °C 38.2 °F /  3.4 °C 30.15 in /  1020.9 hPa NW 9.0 mph /  14.5 km/h 16.0 mph /  25.7 km/h 51 % 0.00 in /  0 mm 438 W/m2
14:50 56.1 °F /  13.4 °C 38.2 °F /  3.4 °C 30.15 in /  1020.9 hPa WNW 10.0 mph /  16.1 km/h 16.0 mph /  25.7 km/h 51 % 0.00 in /  0 mm 432 W/m2
14:55 56.1 °F /  13.4 °C 38.7 °F /  3.7 °C 30.15 in /  1020.9 hPa West 11.0 mph /  17.7 km/h 16.0 mph /  25.7 km/h 52 % 0.00 in /  0 mm 427 W/m2
15:00 56.0 °F /  13.3 °C 38.1 °F /  3.4 °C 30.15 in /  1020.9 hPa NW 10.0 mph /  16.1 km/h 10.0 mph /  16.1 km/h 51 % 0.00 in /  0 mm 176 W/m2
15:10 55.4 °F /  13 °C 37.6 °F /  3.1 °C 30.16 in /  1021.2 hPa WNW 9.0 mph /  14.5 km/h 16.0 mph /  25.7 km/h 51 % 0.00 in /  0 mm 381 W/m2
15:15 55.7 °F /  13.2 °C 38.3 °F /  3.5 °C 30.15 in /  1020.9 hPa WNW 7.0 mph /  11.3 km/h 16.0 mph /  25.7 km/h 52 % 0.00 in /  0 mm 373 W/m2
15:20 55.9 °F /  13.3 °C 38.0 °F /  3.3 °C 30.16 in /  1021.2 hPa WNW 8.0 mph /  12.9 km/h 16.0 mph /  25.7 km/h 51 % 0.00 in /  0 mm 364 W/m2
15:25 56.0 °F /  13.3 °C 38.1 °F /  3.4 °C 30.17 in /  1021.6 hPa WNW 9.0 mph /  14.5 km/h 16.0 mph /  25.7 km/h 51 % 0.00 in /  0 mm 343 W/m2
15:30 56.0 °F /  13.3 °C 38.1 °F /  3.4 °C 30.17 in /  1021.6 hPa West 8.0 mph /  12.9 km/h 8.0 mph /  12.9 km/h 51 % 0.00 in /  0 mm 339 W/m2
15:40 56.0 °F /  13.3 °C 38.1 °F /  3.4 °C 30.17 in /  1021.6 hPa West 8.0 mph /  12.9 km/h 16.0 mph /  25.7 km/h 51 % 0.00 in /  0 mm 309 W/m2
15:45 55.9 °F /  13.3 °C 38.0 °F /  3.3 °C 30.17 in /  1021.6 hPa West 8.0 mph /  12.9 km/h 16.0 mph /  25.7 km/h 51 % 0.00 in /  0 mm 295 W/m2
15:55 55.5 °F /  13.1 °C 38.6 °F /  3.7 °C 30.17 in /  1021.6 hPa West 11.0 mph /  17.7 km/h 16.0 mph /  25.7 km/h 53 % 0.00 in /  0 mm 271 W/m2
16:00 55.2 °F /  12.9 °C 38.8 °F /  3.8 °C 30.17 in /  1021.6 hPa WNW 10.0 mph /  16.1 km/h 16.0 mph /  25.7 km/h 54 % 0.00 in /  0 mm 258 W/m2
16:05 54.7 °F /  12.6 °C 38.4 °F /  3.6 °C 30.18 in /  1021.9 hPa West 9.0 mph /  14.5 km/h 16.0 mph /  25.7 km/h 54 % 0.00 in /  0 mm 246 W/m2
16:15 54.2 °F /  12.3 °C 38.8 °F /  3.8 °C 30.18 in /  1021.9 hPa West 8.0 mph /  12.9 km/h 11.0 mph /  17.7 km/h 56 % 0.00 in /  0 mm 220 W/m2
16:20 53.8 °F /  12.1 °C 38.5 °F /  3.6 °C 30.18 in /  1021.9 hPa West 9.0 mph /  14.5 km/h 16.0 mph /  25.7 km/h 56 % 0.00 in /  0 mm 207 W/m2
16:25 53.6 °F /  12 °C 38.3 °F /  3.5 °C 30.18 in /  1021.9 hPa WNW 9.0 mph /  14.5 km/h 16.0 mph /  25.7 km/h 56 % 0.00 in /  0 mm 195 W/m2
16:30 53.4 °F /  11.9 °C 38.5 °F /  3.6 °C 30.19 in /  1022.2 hPa WSW 8.0 mph /  12.9 km/h 8.0 mph /  12.9 km/h 57 % 0.00 in /  0 mm 176 W/m2
16:35 53.2 °F /  11.8 °C 38.4 °F /  3.6 °C 30.19 in /  1022.2 hPa West 8.0 mph /  12.9 km/h 16.0 mph /  25.7 km/h 57 % 0.00 in /  0 mm 167 W/m2
16:40 53.0 °F /  11.7 °C 38.6 °F /  3.7 °C 30.19 in /  1022.2 hPa WNW 9.0 mph /  14.5 km/h 16.0 mph /  25.7 km/h 58 % 0.00 in /  0 mm 155 W/m2
16:50 52.7 °F /  11.5 °C 38.3 °F /  3.5 °C 30.19 in /  1022.2 hPa WNW 9.0 mph /  14.5 km/h 9.0 mph /  14.5 km/h 58 % 0.00 in /  0 mm 114 W/m2
16:55 52.6 °F /  11.4 °C 38.2 °F /  3.4 °C 30.20 in /  1022.6 hPa West 7.0 mph /  11.3 km/h 16.0 mph /  25.7 km/h 58 % 0.00 in /  0 mm 81 W/m2
17:05 52.2 °F /  11.2 °C 38.7 °F /  3.7 °C 30.20 in /  1022.6 hPa WNW 9.0 mph /  14.5 km/h 16.0 mph /  25.7 km/h 60 % 0.00 in /  0 mm 30 W/m2
17:10 51.8 °F /  11 °C 38.3 °F /  3.5 °C 30.20 in /  1022.6 hPa West 9.0 mph /  14.5 km/h 16.0 mph /  25.7 km/h 60 % 0.00 in /  0 mm 26 W/m2
17:15 51.5 °F /  10.8 °C 38.5 °F /  3.6 °C 30.21 in /  1022.9 hPa West 8.0 mph /  12.9 km/h 16.0 mph /  25.7 km/h 61 % 0.00 in /  0 mm 16 W/m2
17:25 51.0 °F /  10.6 °C 38.4 °F /  3.6 °C 30.22 in /  1023.2 hPa WNW 7.0 mph /  11.3 km/h 16.0 mph /  25.7 km/h 62 % 0.00 in /  0 mm 14 W/m2
17:30 50.6 °F /  10.3 °C 38.5 °F /  3.6 °C 30.21 in /  1022.9 hPa WNW 7.0 mph /  11.3 km/h 7.0 mph /  11.3 km/h 63 % 0.00 in /  0 mm 11 W/m2
17:35 50.2 °F /  10.1 °C 38.1 °F /  3.4 °C 30.22 in /  1023.2 hPa WNW 5.0 mph /  8 km/h 16.0 mph /  25.7 km/h 63 % 0.00 in /  0 mm 11 W/m2
17:40 49.9 °F /  9.9 °C 38.2 °F /  3.4 °C 30.22 in /  1023.2 hPa WNW 5.0 mph /  8 km/h 16.0 mph /  25.7 km/h 64 % 0.00 in /  0 mm 9 W/m2
17:45 49.6 °F /  9.8 °C 38.3 °F /  3.5 °C 30.23 in /  1023.6 hPa WSW 5.0 mph /  8 km/h 16.0 mph /  25.7 km/h 65 % 0.00 in /  0 mm 7 W/m2
17:55 49.1 °F /  9.5 °C 38.2 °F /  3.4 °C 30.22 in /  1023.2 hPa West 2.0 mph /  3.2 km/h 5.0 mph /  8 km/h 66 % 0.00 in /  0 mm 0 W/m2
18:00 48.8 °F /  9.3 °C 38.3 °F /  3.5 °C 30.22 in /  1023.2 hPa WNW 3.0 mph /  4.8 km/h 16.0 mph /  25.7 km/h 67 % 0.00 in /  0 mm 0 W/m2
18:05 48.4 °F /  9.1 °C 38.3 °F /  3.5 °C 30.22 in /  1023.2 hPa WNW 4.0 mph /  6.4 km/h 16.0 mph /  25.7 km/h 68 % 0.00 in /  0 mm 0 W/m2
18:15 47.8 °F /  8.8 °C 38.1 °F /  3.4 °C 30.22 in /  1023.2 hPa WNW 3.0 mph /  4.8 km/h 5.0 mph /  8 km/h 69 % 0.00 in /  0 mm 0 W/m2
18:20 47.5 °F /  8.6 °C 38.2 °F /  3.4 °C 30.22 in /  1023.2 hPa WNW 3.0 mph /  4.8 km/h 16.0 mph /  25.7 km/h 70 % 0.00 in /  0 mm 0 W/m2
18:30 47.0 °F /  8.3 °C 38.1 °F /  3.4 °C 30.22 in /  1023.2 hPa WNW 4.0 mph /  6.4 km/h 4.0 mph /  6.4 km/h 71 % 0.00 in /  0 mm 0 W/m2
18:40 46.6 °F /  8.1 °C 38.1 °F /  3.4 °C 30.23 in /  1023.6 hPa West 4.0 mph /  6.4 km/h 16.0 mph /  25.7 km/h 72 % 0.00 in /  0 mm 0 W/m2
18:45 46.4 °F /  8 °C 37.9 °F /  3.3 °C 30.23 in /  1023.6 hPa West 3.0 mph /  4.8 km/h 16.0 mph /  25.7 km/h 72 % 0.00 in /  0 mm 0 W/m2
18:50 46.2 °F /  7.9 °C 38.0 °F /  3.3 °C 30.24 in /  1023.9 hPa West 2.0 mph /  3.2 km/h 2.0 mph /  3.2 km/h 73 % 0.00 in /  0 mm 0 W/m2
18:55 46.0 °F /  7.8 °C 37.8 °F /  3.2 °C 30.24 in /  1023.9 hPa West 2.0 mph /  3.2 km/h 16.0 mph /  25.7 km/h 73 % 0.00 in /  0 mm 0 W/m2
19:00 45.9 °F /  7.7 °C 37.7 °F /  3.2 °C 30.24 in /  1023.9 hPa West 2.0 mph /  3.2 km/h 16.0 mph /  25.7 km/h 73 % 0.00 in /  0 mm 0 W/m2
19:05 45.8 °F /  7.7 °C 38.0 °F /  3.3 °C 30.24 in /  1023.9 hPa West 1.0 mph /  1.6 km/h 16.0 mph /  25.7 km/h 74 % 0.00 in /  0 mm 0 W/m2
19:10 45.7 °F /  7.6 °C 37.9 °F /  3.3 °C 30.24 in /  1023.9 hPa West 1.0 mph /  1.6 km/h 16.0 mph /  25.7 km/h 74 % 0.00 in /  0 mm 0 W/m2
19:15 45.5 °F /  7.5 °C 38.0 °F /  3.3 °C 30.24 in /  1023.9 hPa WSW 1.0 mph /  1.6 km/h 16.0 mph /  25.7 km/h 75 % 0.00 in /  0 mm 0 W/m2
19:20 45.4 °F /  7.4 °C 37.9 °F /  3.3 °C 30.23 in /  1023.6 hPa West 2.0 mph /  3.2 km/h 16.0 mph /  25.7 km/h 75 % 0.00 in /  0 mm 0 W/m2
19:25 45.3 °F /  7.4 °C 37.8 °F /  3.2 °C 30.25 in /  1024.3 hPa West 1.0 mph /  1.6 km/h 16.0 mph /  25.7 km/h 75 % 0.00 in /  0 mm 0 W/m2
19:30 45.2 °F /  7.3 °C 37.7 °F /  3.2 °C 30.25 in /  1024.3 hPa West 1.0 mph /  1.6 km/h 16.0 mph /  25.7 km/h 75 % 0.00 in /  0 mm 0 W/m2
19:35 45.0 °F /  7.2 °C 37.6 °F /  3.1 °C 30.25 in /  1024.3 hPa West 2.0 mph /  3.2 km/h 16.0 mph /  25.7 km/h 75 % 0.00 in /  0 mm 0 W/m2
19:40 45.0 °F /  7.2 °C 37.9 °F /  3.3 °C 30.25 in /  1024.3 hPa WNW 3.0 mph /  4.8 km/h 16.0 mph /  25.7 km/h 76 % 0.00 in /  0 mm 0 W/m2
19:50 44.9 °F /  7.2 °C 38.1 °F /  3.4 °C 30.26 in /  1024.6 hPa WNW 1.0 mph /  1.6 km/h 1.0 mph /  1.6 km/h 77 % 0.00 in /  0 mm 0 W/m2
19:55 44.7 °F /  7.1 °C 37.9 °F /  3.3 °C 30.26 in /  1024.6 hPa Calm   16.0 mph /  25.7 km/h 77 % 0.00 in /  0 mm 0 W/m2
20:00 44.6 °F /  7 °C 37.8 °F /  3.2 °C 30.26 in /  1024.6 hPa WNW 1.0 mph /  1.6 km/h 16.0 mph /  25.7 km/h 77 % 0.00 in /  0 mm 0 W/m2
20:10 44.4 °F /  6.9 °C 38.0 °F /  3.3 °C 30.26 in /  1024.6 hPa Calm   16.0 mph /  25.7 km/h 78 % 0.00 in /  0 mm 0 W/m2
20:15 44.3 °F /  6.8 °C 38.2 °F /  3.4 °C 30.26 in /  1024.6 hPa Calm   16.0 mph /  25.7 km/h 79 % 0.00 in /  0 mm 0 W/m2
20:20 44.2 °F /  6.8 °C 38.1 °F /  3.4 °C 30.26 in /  1024.6 hPa Calm   16.0 mph /  25.7 km/h 79 % 0.00 in /  0 mm 0 W/m2
20:25 44.2 °F /  6.8 °C 38.1 °F /  3.4 °C 30.26 in /  1024.6 hPa Calm   16.0 mph /  25.7 km/h 79 % 0.00 in /  0 mm 0 W/m2
20:30 44.1 °F /  6.7 °C 38.3 °F /  3.5 °C 30.26 in /  1024.6 hPa Calm   16.0 mph /  25.7 km/h 80 % 0.00 in /  0 mm 0 W/m2
20:35 44.1 °F /  6.7 °C 38.0 °F /  3.3 °C 30.26 in /  1024.6 hPa Calm   16.0 mph /  25.7 km/h 79 % 0.00 in /  0 mm 0 W/m2
20:45 44.0 °F /  6.7 °C 38.2 °F /  3.4 °C 30.26 in /  1024.6 hPa WNW 2.0 mph /  3.2 km/h 16.0 mph /  25.7 km/h 80 % 0.00 in /  0 mm 0 W/m2
20:50 44.1 °F /  6.7 °C 38.3 °F /  3.5 °C 30.27 in /  1024.9 hPa WNW 1.0 mph /  1.6 km/h 1.0 mph /  1.6 km/h 80 % 0.00 in /  0 mm 0 W/m2
20:55 44.0 °F /  6.7 °C 38.5 °F /  3.6 °C 30.27 in /  1024.9 hPa Calm   16.0 mph /  25.7 km/h 81 % 0.00 in /  0 mm 0 W/m2
21:05 44.0 °F /  6.7 °C 38.5 °F /  3.6 °C 30.27 in /  1024.9 hPa Calm   16.0 mph /  25.7 km/h 81 % 0.00 in /  0 mm 0 W/m2
21:10 43.8 °F /  6.6 °C 38.3 °F /  3.5 °C 30.28 in /  1025.3 hPa Calm   16.0 mph /  25.7 km/h 81 % 0.00 in /  0 mm 0 W/m2
21:20 43.7 °F /  6.5 °C 38.6 °F /  3.7 °C 30.27 in /  1024.9 hPa Calm   16.0 mph /  25.7 km/h 82 % 0.00 in /  0 mm 0 W/m2
21:25 43.5 °F /  6.4 °C 38.4 °F /  3.6 °C 30.28 in /  1025.3 hPa Calm   16.0 mph /  25.7 km/h 82 % 0.00 in /  0 mm 0 W/m2
21:30 43.4 °F /  6.3 °C 38.6 °F /  3.7 °C 30.27 in /  1024.9 hPa WNW 1.0 mph /  1.6 km/h 16.0 mph /  25.7 km/h 83 % 0.00 in /  0 mm 0 W/m2
21:35 43.4 °F /  6.3 °C 38.6 °F /  3.7 °C 30.27 in /  1024.9 hPa WNW 1.0 mph /  1.6 km/h 16.0 mph /  25.7 km/h 83 % 0.00 in /  0 mm 0 W/m2
21:40 43.4 °F /  6.3 °C 38.6 °F /  3.7 °C 30.27 in /  1024.9 hPa WNW 1.0 mph /  1.6 km/h 1.0 mph /  1.6 km/h 83 % 0.00 in /  0 mm 0 W/m2
21:55 43.2 °F /  6.2 °C 38.4 °F /  3.6 °C 30.27 in /  1024.9 hPa Calm   16.0 mph /  25.7 km/h 83 % 0.00 in /  0 mm 0 W/m2
22:00 43.1 °F /  6.2 °C 38.6 °F /  3.7 °C 30.27 in /  1024.9 hPa Calm   16.0 mph /  25.7 km/h 84 % 0.00 in /  0 mm 0 W/m2
22:05 43.0 °F /  6.1 °C 38.5 °F /  3.6 °C 30.27 in /  1024.9 hPa Calm   16.0 mph /  25.7 km/h 84 % 0.00 in /  0 mm 0 W/m2
22:10 42.9 °F /  6.1 °C 38.4 °F /  3.6 °C 30.27 in /  1024.9 hPa Calm   16.0 mph /  25.7 km/h 84 % 0.00 in /  0 mm 0 W/m2
22:15 42.9 °F /  6.1 °C 38.4 °F /  3.6 °C 30.27 in /  1024.9 hPa Calm   16.0 mph /  25.7 km/h 84 % 0.00 in /  0 mm 0 W/m2
22:25 42.7 °F /  5.9 °C 38.2 °F /  3.4 °C 30.27 in /  1024.9 hPa Calm   16.0 mph /  25.7 km/h 84 % 0.00 in /  0 mm 0 W/m2
22:35 42.6 °F /  5.9 °C 38.4 °F /  3.6 °C 30.28 in /  1025.3 hPa Calm   16.0 mph /  25.7 km/h 85 % 0.00 in /  0 mm 0 W/m2
22:40 42.4 °F /  5.8 °C 38.2 °F /  3.4 °C 30.28 in /  1025.3 hPa Calm   16.0 mph /  25.7 km/h 85 % 0.00 in /  0 mm 0 W/m2
22:45 42.3 °F /  5.7 °C 38.4 °F /  3.6 °C 30.28 in /  1025.3 hPa Calm   16.0 mph /  25.7 km/h 86 % 0.00 in /  0 mm 0 W/m2
22:50 42.1 °F /  5.6 °C 37.9 °F /  3.3 °C 30.28 in /  1025.3 hPa Calm   16.0 mph /  25.7 km/h 85 % 0.00 in /  0 mm 0 W/m2
23:00 41.7 °F /  5.4 °C 37.8 °F /  3.2 °C 30.28 in /  1025.3 hPa Calm   16.0 mph /  25.7 km/h 86 % 0.00 in /  0 mm 0 W/m2
23:05 41.5 °F /  5.3 °C 37.6 °F /  3.1 °C 30.29 in /  1025.6 hPa Calm   16.0 mph /  25.7 km/h 86 % 0.00 in /  0 mm 0 W/m2
23:10 41.5 °F /  5.3 °C 37.9 °F /  3.3 °C 30.29 in /  1025.6 hPa Calm   16.0 mph /  25.7 km/h 87 % 0.00 in /  0 mm 0 W/m2
23:15 41.4 °F /  5.2 °C 37.8 °F /  3.2 °C 30.29 in /  1025.6 hPa Calm   16.0 mph /  25.7 km/h 87 % 0.00 in /  0 mm 0 W/m2
23:20 41.3 °F /  5.2 °C 37.7 °F /  3.2 °C 30.29 in /  1025.6 hPa Calm   16.0 mph /  25.7 km/h 87 % 0.00 in /  0 mm 0 W/m2
23:30 40.9 °F /  4.9 °C 37.3 °F /  2.9 °C 30.29 in /  1025.6 hPa Calm   16.0 mph /  25.7 km/h 87 % 0.00 in /  0 mm 0 W/m2
23:35 40.6 °F /  4.8 °C 37.0 °F /  2.8 °C 30.29 in /  1025.6 hPa Calm   16.0 mph /  25.7 km/h 87 % 0.00 in /  0 mm 0 W/m2
23:40 40.5 °F /  4.7 °C 37.2 °F /  2.9 °C 30.30 in /  1026 hPa Calm   16.0 mph /  25.7 km/h 88 % 0.00 in /  0 mm 0 W/m2
23:50 40.2 °F /  4.6 °C 36.9 °F /  2.7 °C 30.30 in /  1026 hPa Calm   16.0 mph /  25.7 km/h 88 % 0.00 in /  0 mm 0 W/m2
23:55 40.2 °F /  4.6 °C 37.2 °F /  2.9 °C 30.30 in /  1026 hPa Calm   16.0 mph /  25.7 km/h 89 % 0.00 in /  0 mm 0 W/m2
Delerius-Weather
Compliments of Weather Underground - 2 mb

Data updates at regular intervals.